sensor_id;sensor_type;location;lat;lon;timestamp;temperature;humidity
63051;SHT30;49136;47.416;19.402;2023-02-15T00:01:05;-3.50;99.99
63051;SHT30;49136;47.416;19.402;2023-02-15T00:03:30;-3.56;99.99
63051;SHT30;49136;47.416;19.402;2023-02-15T00:05:57;-3.63;99.99
63051;SHT30;49136;47.416;19.402;2023-02-15T00:08:22;-3.72;99.99
63051;SHT30;49136;47.416;19.402;2023-02-15T00:10:48;-3.83;99.99
63051;SHT30;49136;47.416;19.402;2023-02-15T00:13:13;-3.79;99.99
63051;SHT30;49136;47.416;19.402;2023-02-15T00:15:38;-3.65;99.99
63051;SHT30;49136;47.416;19.402;2023-02-15T00:18:04;-3.69;99.99
63051;SHT30;49136;47.416;19.402;2023-02-15T00:20:29;-3.78;99.99
63051;SHT30;49136;47.416;19.402;2023-02-15T00:22:55;-3.75;99.99
63051;SHT30;49136;47.416;19.402;2023-02-15T00:25:20;-3.79;99.99
63051;SHT30;49136;47.416;19.402;2023-02-15T00:27:46;-3.89;99.99
63051;SHT30;49136;47.416;19.402;2023-02-15T00:30:11;-3.56;99.99
63051;SHT30;49136;47.416;19.402;2023-02-15T00:32:37;-3.52;99.99
63051;SHT30;49136;47.416;19.402;2023-02-15T00:35:02;-3.62;99.99
63051;SHT30;49136;47.416;19.402;2023-02-15T00:37:28;-3.61;99.99
63051;SHT30;49136;47.416;19.402;2023-02-15T00:39:53;-3.73;99.99
63051;SHT30;49136;47.416;19.402;2023-02-15T00:42:19;-3.78;99.99
63051;SHT30;49136;47.416;19.402;2023-02-15T00:44:44;-3.90;99.99
63051;SHT30;49136;47.416;19.402;2023-02-15T00:47:10;-4.00;99.99
63051;SHT30;49136;47.416;19.402;2023-02-15T00:49:35;-3.90;99.99
63051;SHT30;49136;47.416;19.402;2023-02-15T00:52:00;-3.90;99.99
63051;SHT30;49136;47.416;19.402;2023-02-15T00:54:26;-3.96;99.99
63051;SHT30;49136;47.416;19.402;2023-02-15T00:56:51;-4.06;99.99
63051;SHT30;49136;47.416;19.402;2023-02-15T00:59:17;-3.91;99.99
63051;SHT30;49136;47.416;19.402;2023-02-15T01:01:42;-3.79;99.99
63051;SHT30;49136;47.416;19.402;2023-02-15T01:04:08;-3.66;99.99
63051;SHT30;49136;47.416;19.402;2023-02-15T01:06:33;-3.72;99.99
63051;SHT30;49136;47.416;19.402;2023-02-15T01:08:58;-3.86;99.99
63051;SHT30;49136;47.416;19.402;2023-02-15T01:11:24;-3.93;99.99
63051;SHT30;49136;47.416;19.402;2023-02-15T01:13:51;-3.91;99.99
63051;SHT30;49136;47.416;19.402;2023-02-15T01:16:17;-4.01;99.99
63051;SHT30;49136;47.416;19.402;2023-02-15T01:18:43;-4.10;99.99
63051;SHT30;49136;47.416;19.402;2023-02-15T01:21:13;-4.13;99.99
63051;SHT30;49136;47.416;19.402;2023-02-15T01:23:40;-4.17;99.99
63051;SHT30;49136;47.416;19.402;2023-02-15T01:26:06;-4.24;99.99
63051;SHT30;49136;47.416;19.402;2023-02-15T01:28:32;-4.25;99.99
63051;SHT30;49136;47.416;19.402;2023-02-15T01:30:58;-4.31;99.99
63051;SHT30;49136;47.416;19.402;2023-02-15T01:33:24;-4.39;99.99
63051;SHT30;49136;47.416;19.402;2023-02-15T01:35:56;-4.38;99.99
63051;SHT30;49136;47.416;19.402;2023-02-15T01:38:21;-4.38;99.99
63051;SHT30;49136;47.416;19.402;2023-02-15T01:40:47;-4.25;99.99
63051;SHT30;49136;47.416;19.402;2023-02-15T01:43:15;-4.31;99.99
63051;SHT30;49136;47.416;19.402;2023-02-15T01:45:40;-4.38;99.99
63051;SHT30;49136;47.416;19.402;2023-02-15T01:48:26;-4.38;99.99
63051;SHT30;49136;47.416;19.402;2023-02-15T01:50:56;-4.41;99.99
63051;SHT30;49136;47.416;19.402;2023-02-15T01:53:30;-4.52;99.99
63051;SHT30;49136;47.416;19.402;2023-02-15T01:55:59;-4.52;99.99
63051;SHT30;49136;47.416;19.402;2023-02-15T01:58:27;-4.50;99.99
63051;SHT30;49136;47.416;19.402;2023-02-15T02:00:59;-4.60;99.99
63051;SHT30;49136;47.416;19.402;2023-02-15T02:04:37;-4.65;99.99
63051;SHT30;49136;47.416;19.402;2023-02-15T02:06:30;-4.62;99.99
63051;SHT30;49136;47.416;19.402;2023-02-15T02:08:57;-4.67;99.99
63051;SHT30;49136;47.416;19.402;2023-02-15T02:11:23;-4.69;99.99
63051;SHT30;49136;47.416;19.402;2023-02-15T02:13:50;-4.66;99.99
63051;SHT30;49136;47.416;19.402;2023-02-15T02:19:19;-4.76;99.99
63051;SHT30;49136;47.416;19.402;2023-02-15T02:27:37;-4.55;99.99
63051;SHT30;49136;47.416;19.402;2023-02-15T02:32:59;-4.28;99.99
63051;SHT30;49136;47.416;19.402;2023-02-15T02:38:21;-3.59;99.99
63051;SHT30;49136;47.416;19.402;2023-02-15T02:43:35;-4.10;99.99
63051;SHT30;49136;47.416;19.402;2023-02-15T02:46:10;-4.21;99.99
63051;SHT30;49136;47.416;19.402;2023-02-15T02:48:38;-4.29;99.99
63051;SHT30;49136;47.416;19.402;2023-02-15T02:51:04;-4.41;99.99
63051;SHT30;49136;47.416;19.402;2023-02-15T02:53:30;-4.38;99.99
63051;SHT30;49136;47.416;19.402;2023-02-15T02:56:01;-4.45;99.99
63051;SHT30;49136;47.416;19.402;2023-02-15T02:58:44;-4.52;99.99
63051;SHT30;49136;47.416;19.402;2023-02-15T03:01:25;-4.52;99.99
63051;SHT30;49136;47.416;19.402;2023-02-15T03:03:57;-4.52;99.99
63051;SHT30;49136;47.416;19.402;2023-02-15T03:09:12;-4.60;99.99
63051;SHT30;49136;47.416;19.402;2023-02-15T03:11:43;-4.59;99.99
63051;SHT30;49136;47.416;19.402;2023-02-15T03:14:09;-4.65;99.99
63051;SHT30;49136;47.416;19.402;2023-02-15T03:16:36;-4.65;99.99
63051;SHT30;49136;47.416;19.402;2023-02-15T03:19:09;-4.66;99.99
63051;SHT30;49136;47.416;19.402;2023-02-15T03:21:48;-4.73;99.99
63051;SHT30;49136;47.416;19.402;2023-02-15T03:24:34;-4.80;99.99
63051;SHT30;49136;47.416;19.402;2023-02-15T03:27:03;-4.84;99.99
63051;SHT30;49136;47.416;19.402;2023-02-15T03:29:32;-4.81;99.99
63051;SHT30;49136;47.416;19.402;2023-02-15T03:32:00;-4.76;99.99
63051;SHT30;49136;47.416;19.402;2023-02-15T03:34:27;-4.74;99.99
63051;SHT30;49136;47.416;19.402;2023-02-15T03:37:00;-4.48;99.99
63051;SHT30;49136;47.416;19.402;2023-02-15T03:39:45;-4.49;99.99
63051;SHT30;49136;47.416;19.402;2023-02-15T03:42:16;-4.36;99.99
63051;SHT30;49136;47.416;19.402;2023-02-15T03:44:59;-4.52;99.99
63051;SHT30;49136;47.416;19.402;2023-02-15T03:47:29;-4.62;99.99
63051;SHT30;49136;47.416;19.402;2023-02-15T03:50:07;-4.66;99.99
63051;SHT30;49136;47.416;19.402;2023-02-15T03:52:54;-4.63;99.99
63051;SHT30;49136;47.416;19.402;2023-02-15T03:55:21;-4.72;99.99
63051;SHT30;49136;47.416;19.402;2023-02-15T03:57:47;-4.77;99.99
63051;SHT30;49136;47.416;19.402;2023-02-15T04:00:35;-4.72;99.99
63051;SHT30;49136;47.416;19.402;2023-02-15T04:03:37;-4.67;99.99
63051;SHT30;49136;47.416;19.402;2023-02-15T04:06:03;-4.55;99.99
63051;SHT30;49136;47.416;19.402;2023-02-15T04:08:29;-4.35;99.99
63051;SHT30;49136;47.416;19.402;2023-02-15T04:11:13;-4.07;99.99
63051;SHT30;49136;47.416;19.402;2023-02-15T04:13:39;-4.06;99.99
63051;SHT30;49136;47.416;19.402;2023-02-15T04:16:04;-4.24;99.99
63051;SHT30;49136;47.416;19.402;2023-02-15T04:18:38;-4.18;99.99
63051;SHT30;49136;47.416;19.402;2023-02-15T04:21:23;-4.22;99.99
63051;SHT30;49136;47.416;19.402;2023-02-15T04:24:08;-4.31;99.99
63051;SHT30;49136;47.416;19.402;2023-02-15T04:26:53;-4.33;99.99
63051;SHT30;49136;47.416;19.402;2023-02-15T04:29:20;-4.46;99.99
63051;SHT30;49136;47.416;19.402;2023-02-15T04:31:46;-4.33;99.99
63051;SHT30;49136;47.416;19.402;2023-02-15T04:34:12;-4.44;99.99
63051;SHT30;49136;47.416;19.402;2023-02-15T04:36:38;-4.50;99.99
63051;SHT30;49136;47.416;19.402;2023-02-15T04:39:04;-4.38;99.99
63051;SHT30;49136;47.416;19.402;2023-02-15T04:41:30;-4.41;99.99
63051;SHT30;49136;47.416;19.402;2023-02-15T04:43:56;-4.50;99.99
63051;SHT30;49136;47.416;19.402;2023-02-15T04:46:22;-4.57;99.99
63051;SHT30;49136;47.416;19.402;2023-02-15T04:48:48;-4.63;99.99
63051;SHT30;49136;47.416;19.402;2023-02-15T04:51:14;-4.59;99.99
63051;SHT30;49136;47.416;19.402;2023-02-15T04:53:39;-4.44;99.99
63051;SHT30;49136;47.416;19.402;2023-02-15T04:56:05;-4.60;99.99
63051;SHT30;49136;47.416;19.402;2023-02-15T04:58:30;-4.56;99.99
63051;SHT30;49136;47.416;19.402;2023-02-15T05:00:56;-4.63;99.99
63051;SHT30;49136;47.416;19.402;2023-02-15T05:03:22;-4.63;99.99
63051;SHT30;49136;47.416;19.402;2023-02-15T05:05:47;-4.66;99.99
63051;SHT30;49136;47.416;19.402;2023-02-15T05:08:13;-4.66;99.99
63051;SHT30;49136;47.416;19.402;2023-02-15T05:10:39;-4.76;99.99
63051;SHT30;49136;47.416;19.402;2023-02-15T05:13:04;-4.77;99.99
63051;SHT30;49136;47.416;19.402;2023-02-15T05:15:29;-4.76;99.99
63051;SHT30;49136;47.416;19.402;2023-02-15T05:17:55;-4.69;99.99
63051;SHT30;49136;47.416;19.402;2023-02-15T05:20:20;-4.65;99.99
63051;SHT30;49136;47.416;19.402;2023-02-15T05:22:46;-4.70;99.99
63051;SHT30;49136;47.416;19.402;2023-02-15T05:25:11;-4.73;99.99
63051;SHT30;49136;47.416;19.402;2023-02-15T05:27:56;-4.73;99.99
63051;SHT30;49136;47.416;19.402;2023-02-15T05:30:39;-4.65;99.99
63051;SHT30;49136;47.416;19.402;2023-02-15T05:33:06;-4.70;99.99
63051;SHT30;49136;47.416;19.402;2023-02-15T05:35:32;-4.53;99.99
63051;SHT30;49136;47.416;19.402;2023-02-15T05:37:58;-4.70;99.99
63051;SHT30;49136;47.416;19.402;2023-02-15T05:40:23;-4.72;99.99
63051;SHT30;49136;47.416;19.402;2023-02-15T05:42:49;-4.65;99.99
63051;SHT30;49136;47.416;19.402;2023-02-15T05:45:14;-4.60;99.99
63051;SHT30;49136;47.416;19.402;2023-02-15T05:47:41;-4.49;99.99
63051;SHT30;49136;47.416;19.402;2023-02-15T05:50:07;-4.45;99.99
63051;SHT30;49136;47.416;19.402;2023-02-15T05:52:33;-4.39;99.99
63051;SHT30;49136;47.416;19.402;2023-02-15T05:54:59;-4.31;99.99
63051;SHT30;49136;47.416;19.402;2023-02-15T05:57:26;-4.29;99.99
63051;SHT30;49136;47.416;19.402;2023-02-15T05:59:51;-4.32;99.99
63051;SHT30;49136;47.416;19.402;2023-02-15T06:02:17;-4.22;99.99
63051;SHT30;49136;47.416;19.402;2023-02-15T06:04:42;-4.22;99.99
63051;SHT30;49136;47.416;19.402;2023-02-15T06:07:07;-4.14;99.99
63051;SHT30;49136;47.416;19.402;2023-02-15T06:09:33;-4.21;99.99
63051;SHT30;49136;47.416;19.402;2023-02-15T06:11:58;-4.26;99.99
63051;SHT30;49136;47.416;19.402;2023-02-15T06:14:24;-4.33;99.99
63051;SHT30;49136;47.416;19.402;2023-02-15T06:16:49;-4.32;99.99
63051;SHT30;49136;47.416;19.402;2023-02-15T06:19:15;-4.28;99.99
63051;SHT30;49136;47.416;19.402;2023-02-15T06:21:40;-4.29;99.99
63051;SHT30;49136;47.416;19.402;2023-02-15T06:24:08;-4.25;99.99
63051;SHT30;49136;47.416;19.402;2023-02-15T06:26:33;-4.24;99.99
63051;SHT30;49136;47.416;19.402;2023-02-15T06:28:59;-4.22;99.99
63051;SHT30;49136;47.416;19.402;2023-02-15T06:31:25;-4.18;99.99
63051;SHT30;49136;47.416;19.402;2023-02-15T06:33:50;-4.13;99.99
63051;SHT30;49136;47.416;19.402;2023-02-15T06:36:16;-4.00;99.99
63051;SHT30;49136;47.416;19.402;2023-02-15T06:38:41;-3.91;99.99
63051;SHT30;49136;47.416;19.402;2023-02-15T06:41:07;-3.82;99.99
63051;SHT30;49136;47.416;19.402;2023-02-15T06:43:32;-3.65;99.99
63051;SHT30;49136;47.416;19.402;2023-02-15T06:45:59;-3.40;99.99
63051;SHT30;49136;47.416;19.402;2023-02-15T06:48:24;-3.26;99.99
63051;SHT30;49136;47.416;19.402;2023-02-15T06:50:50;-2.93;99.99
63051;SHT30;49136;47.416;19.402;2023-02-15T06:53:15;-2.84;99.99
63051;SHT30;49136;47.416;19.402;2023-02-15T06:55:41;-2.56;99.99
63051;SHT30;49136;47.416;19.402;2023-02-15T06:58:06;-2.37;99.99
63051;SHT30;49136;47.416;19.402;2023-02-15T07:00:32;-2.01;99.99
63051;SHT30;49136;47.416;19.402;2023-02-15T07:02:58;-1.85;99.99
63051;SHT30;49136;47.416;19.402;2023-02-15T07:05:25;-1.70;99.99
63051;SHT30;49136;47.416;19.402;2023-02-15T07:07:55;-1.59;99.99
63051;SHT30;49136;47.416;19.402;2023-02-15T07:10:21;-1.29;99.99
63051;SHT30;49136;47.416;19.402;2023-02-15T07:12:46;-1.14;99.99
63051;SHT30;49136;47.416;19.402;2023-02-15T07:15:17;-0.87;99.99
63051;SHT30;49136;47.416;19.402;2023-02-15T07:17:43;-0.55;99.99
63051;SHT30;49136;47.416;19.402;2023-02-15T07:20:12;-0.27;99.99
63051;SHT30;49136;47.416;19.402;2023-02-15T07:22:38;-0.09;99.99
63051;SHT30;49136;47.416;19.402;2023-02-15T07:25:04;0.37;99.99
63051;SHT30;49136;47.416;19.402;2023-02-15T07:27:30;0.48;99.99
63051;SHT30;49136;47.416;19.402;2023-02-15T07:29:56;0.77;99.99
63051;SHT30;49136;47.416;19.402;2023-02-15T07:32:22;1.21;99.44
63051;SHT30;49136;47.416;19.402;2023-02-15T07:34:47;1.43;98.72
63051;SHT30;49136;47.416;19.402;2023-02-15T07:37:12;1.47;98.82
63051;SHT30;49136;47.416;19.402;2023-02-15T07:39:38;1.98;98.29
63051;SHT30;49136;47.416;19.402;2023-02-15T07:42:03;2.15;98.35
63051;SHT30;49136;47.416;19.402;2023-02-15T07:44:29;2.47;97.59
63051;SHT30;49136;47.416;19.402;2023-02-15T07:46:54;2.79;97.10
63051;SHT30;49136;47.416;19.402;2023-02-15T07:49:19;3.06;96.05
63051;SHT30;49136;47.416;19.402;2023-02-15T07:51:45;3.33;94.49
63051;SHT30;49136;47.416;19.402;2023-02-15T07:54:11;3.54;93.71
63051;SHT30;49136;47.416;19.402;2023-02-15T07:56:36;3.74;92.70
63051;SHT30;49136;47.416;19.402;2023-02-15T07:59:02;4.01;92.19
63051;SHT30;49136;47.416;19.402;2023-02-15T08:01:35;4.07;91.67
63051;SHT30;49136;47.416;19.402;2023-02-15T08:04:02;4.21;91.23
63051;SHT30;49136;47.416;19.402;2023-02-15T08:06:31;4.42;90.10
63051;SHT30;49136;47.416;19.402;2023-02-15T08:08:57;4.59;90.09
63051;SHT30;49136;47.416;19.402;2023-02-15T08:11:28;4.68;89.40
63051;SHT30;49136;47.416;19.402;2023-02-15T08:14:13;4.86;89.67
63051;SHT30;49136;47.416;19.402;2023-02-15T08:17:13;4.91;88.91
63051;SHT30;49136;47.416;19.402;2023-02-15T08:19:32;4.97;88.15
63051;SHT30;49136;47.416;19.402;2023-02-15T08:22:03;5.08;88.32
63051;SHT30;49136;47.416;19.402;2023-02-15T08:24:32;5.31;87.63
63051;SHT30;49136;47.416;19.402;2023-02-15T08:26:58;5.46;87.08
63051;SHT30;49136;47.416;19.402;2023-02-15T08:29:27;5.56;86.17
63051;SHT30;49136;47.416;19.402;2023-02-15T08:31:54;5.73;86.09
63051;SHT30;49136;47.416;19.402;2023-02-15T08:34:20;5.73;85.13
63051;SHT30;49136;47.416;19.402;2023-02-15T08:36:46;5.94;84.50
63051;SHT30;49136;47.416;19.402;2023-02-15T08:39:13;6.05;84.18
63051;SHT30;49136;47.416;19.402;2023-02-15T08:41:42;6.04;84.12
63051;SHT30;49136;47.416;19.402;2023-02-15T08:44:08;6.14;83.10
63051;SHT30;49136;47.416;19.402;2023-02-15T08:46:40;6.14;83.57
63051;SHT30;49136;47.416;19.402;2023-02-15T08:49:07;6.39;83.27
63051;SHT30;49136;47.416;19.402;2023-02-15T08:51:34;6.53;82.52
63051;SHT30;49136;47.416;19.402;2023-02-15T08:54:05;6.58;81.91
63051;SHT30;49136;47.416;19.402;2023-02-15T08:56:37;6.73;81.49
63051;SHT30;49136;47.416;19.402;2023-02-15T08:59:03;6.73;80.87
63051;SHT30;49136;47.416;19.402;2023-02-15T09:01:31;6.96;80.88
63051;SHT30;49136;47.416;19.402;2023-02-15T09:04:07;7.13;79.82
63051;SHT30;49136;47.416;19.402;2023-02-15T09:06:36;7.27;79.86
63051;SHT30;49136;47.416;19.402;2023-02-15T09:09:03;7.17;79.89
63051;SHT30;49136;47.416;19.402;2023-02-15T09:11:30;7.23;78.82
63051;SHT30;49136;47.416;19.402;2023-02-15T09:13:59;7.35;79.05
63051;SHT30;49136;47.416;19.402;2023-02-15T09:16:28;7.40;78.23
63051;SHT30;49136;47.416;19.402;2023-02-15T09:18:54;7.43;78.08
63051;SHT30;49136;47.416;19.402;2023-02-15T09:21:24;7.65;78.68
63051;SHT30;49136;47.416;19.402;2023-02-15T09:23:51;7.82;77.43
63051;SHT30;49136;47.416;19.402;2023-02-15T09:26:19;7.96;77.18
63051;SHT30;49136;47.416;19.402;2023-02-15T09:28:45;8.04;76.67
63051;SHT30;49136;47.416;19.402;2023-02-15T09:31:16;7.74;77.26
63051;SHT30;49136;47.416;19.402;2023-02-15T09:33:43;7.74;77.64
63051;SHT30;49136;47.416;19.402;2023-02-15T09:36:26;7.96;76.67
63051;SHT30;49136;47.416;19.402;2023-02-15T09:44:11;7.92;76.59
63051;SHT30;49136;47.416;19.402;2023-02-15T09:49:32;8.31;75.42
63051;SHT30;49136;47.416;19.402;2023-02-15T09:52:39;8.52;76.08
63051;SHT30;49136;47.416;19.402;2023-02-15T09:58:07;9.17;73.74
63051;SHT30;49136;47.416;19.402;2023-02-15T10:00:59;8.99;73.12
63051;SHT30;49136;47.416;19.402;2023-02-15T10:27:48;9.99;71.37
63051;SHT30;49136;47.416;19.402;2023-02-15T10:33:04;10.22;69.93
63051;SHT30;49136;47.416;19.402;2023-02-15T10:46:36;10.91;67.26
63051;SHT30;49136;47.416;19.402;2023-02-15T10:52:00;10.59;68.42
63051;SHT30;49136;47.416;19.402;2023-02-15T10:57:38;10.73;69.48
63051;SHT30;49136;47.416;19.402;2023-02-15T11:00:21;10.80;69.07
63051;SHT30;49136;47.416;19.402;2023-02-15T11:07:47;11.25;66.31
63051;SHT30;49136;47.416;19.402;2023-02-15T11:10:30;11.16;66.94
63051;SHT30;49136;47.416;19.402;2023-02-15T11:12:57;11.11;67.60
63051;SHT30;49136;47.416;19.402;2023-02-15T11:15:34;11.01;66.98
63051;SHT30;49136;47.416;19.402;2023-02-15T11:18:13;11.22;67.41
63051;SHT30;49136;47.416;19.402;2023-02-15T11:20:45;11.70;67.35
63051;SHT30;49136;47.416;19.402;2023-02-15T11:23:15;11.66;66.73
63051;SHT30;49136;47.416;19.402;2023-02-15T11:25:43;11.85;66.05
63051;SHT30;49136;47.416;19.402;2023-02-15T11:31:21;12.10;66.84
63051;SHT30;49136;47.416;19.402;2023-02-15T11:34:11;12.27;65.19
63051;SHT30;49136;47.416;19.402;2023-02-15T11:36:40;12.09;65.17
63051;SHT30;49136;47.416;19.402;2023-02-15T11:39:15;11.92;65.02
63051;SHT30;49136;47.416;19.402;2023-02-15T11:41:45;11.89;64.83
63051;SHT30;49136;47.416;19.402;2023-02-15T11:44:15;12.15;66.18
63051;SHT30;49136;47.416;19.402;2023-02-15T11:46:41;12.22;64.17
63051;SHT30;49136;47.416;19.402;2023-02-15T11:49:33;11.77;65.88
63051;SHT30;49136;47.416;19.402;2023-02-15T11:52:10;11.91;64.89
63051;SHT30;49136;47.416;19.402;2023-02-15T11:54:40;12.16;64.66
63051;SHT30;49136;47.416;19.402;2023-02-15T11:57:17;11.82;64.73
63051;SHT30;49136;47.416;19.402;2023-02-15T12:03:03;12.16;65.88
63051;SHT30;49136;47.416;19.402;2023-02-15T12:05:33;12.05;63.89
63051;SHT30;49136;47.416;19.402;2023-02-15T12:08:16;12.01;64.44
63051;SHT30;49136;47.416;19.402;2023-02-15T12:11:03;12.16;64.00
63051;SHT30;49136;47.416;19.402;2023-02-15T12:13:31;12.09;64.43
63051;SHT30;49136;47.416;19.402;2023-02-15T12:15:58;11.92;63.77
63051;SHT30;49136;47.416;19.402;2023-02-15T12:18:44;11.92;63.89
63051;SHT30;49136;47.416;19.402;2023-02-15T12:21:11;12.08;63.44
63051;SHT30;49136;47.416;19.402;2023-02-15T12:23:50;12.02;65.09
63051;SHT30;49136;47.416;19.402;2023-02-15T12:26:26;11.73;63.42
63051;SHT30;49136;47.416;19.402;2023-02-15T12:28:53;11.61;63.73
63051;SHT30;49136;47.416;19.402;2023-02-15T12:31:26;11.84;63.77
63051;SHT30;49136;47.416;19.402;2023-02-15T12:33:56;11.70;65.06
63051;SHT30;49136;47.416;19.402;2023-02-15T12:36:40;11.70;66.11
63051;SHT30;49136;47.416;19.402;2023-02-15T12:42:00;11.82;64.60
63051;SHT30;49136;47.416;19.402;2023-02-15T12:44:35;11.86;64.32
63051;SHT30;49136;47.416;19.402;2023-02-15T12:49:36;11.91;65.25
63051;SHT30;49136;47.416;19.402;2023-02-15T12:52:22;11.92;63.80
63051;SHT30;49136;47.416;19.402;2023-02-15T12:54:49;11.86;64.61
63051;SHT30;49136;47.416;19.402;2023-02-15T12:57:28;11.60;64.33
63051;SHT30;49136;47.416;19.402;2023-02-15T13:00:06;11.32;63.77
63051;SHT30;49136;47.416;19.402;2023-02-15T13:02:42;11.64;64.66
63051;SHT30;49136;47.416;19.402;2023-02-15T13:05:31;11.81;64.51
63051;SHT30;49136;47.416;19.402;2023-02-15T13:08:08;11.70;63.39
63051;SHT30;49136;47.416;19.402;2023-02-15T13:10:37;11.54;62.65
63051;SHT30;49136;47.416;19.402;2023-02-15T13:13:11;11.46;63.80
63051;SHT30;49136;47.416;19.402;2023-02-15T13:15:44;11.50;64.80
63051;SHT30;49136;47.416;19.402;2023-02-15T13:21:21;11.57;63.75
63051;SHT30;49136;47.416;19.402;2023-02-15T13:23:59;11.30;62.65
63051;SHT30;49136;47.416;19.402;2023-02-15T13:26:26;11.34;63.85
63051;SHT30;49136;47.416;19.402;2023-02-15T13:29:21;11.22;63.43
63051;SHT30;49136;47.416;19.402;2023-02-15T13:31:49;10.81;64.35
63051;SHT30;49136;47.416;19.402;2023-02-15T13:34:33;11.07;64.66
63051;SHT30;49136;47.416;19.402;2023-02-15T13:37:23;11.20;65.49
63051;SHT30;49136;47.416;19.402;2023-02-15T13:42:29;10.84;65.99
63051;SHT30;49136;47.416;19.402;2023-02-15T13:48:08;10.99;66.52
63051;SHT30;49136;47.416;19.402;2023-02-15T14:32:08;9.87;68.60
63051;SHT30;49136;47.416;19.402;2023-02-15T14:34:47;9.76;68.50
63051;SHT30;49136;47.416;19.402;2023-02-15T14:37:18;9.60;68.79
63051;SHT30;49136;47.416;19.402;2023-02-15T14:45:49;9.39;69.44
63051;SHT30;49136;47.416;19.402;2023-02-15T14:48:38;9.22;69.95
63051;SHT30;49136;47.416;19.402;2023-02-15T14:51:00;9.03;71.00
63051;SHT30;49136;47.416;19.402;2023-02-15T14:58:57;8.81;71.24
63051;SHT30;49136;47.416;19.402;2023-02-15T15:01:32;8.69;71.48
63051;SHT30;49136;47.416;19.402;2023-02-15T15:04:05;8.56;72.33
63051;SHT30;49136;47.416;19.402;2023-02-15T15:06:36;8.54;71.61
63051;SHT30;49136;47.416;19.402;2023-02-15T15:09:29;8.30;73.14
63051;SHT30;49136;47.416;19.402;2023-02-15T15:14:44;8.02;73.35
63051;SHT30;49136;47.416;19.402;2023-02-15T15:17:13;7.93;73.73
63051;SHT30;49136;47.416;19.402;2023-02-15T15:20:42;7.76;74.22
63051;SHT30;49136;47.416;19.402;2023-02-15T15:22:47;7.61;74.67
63051;SHT30;49136;47.416;19.402;2023-02-15T15:25:41;7.40;75.27
63051;SHT30;49136;47.416;19.402;2023-02-15T15:28:07;7.31;75.59
63051;SHT30;49136;47.416;19.402;2023-02-15T15:33:16;7.08;76.58
63051;SHT30;49136;47.416;19.402;2023-02-15T15:38:55;6.70;77.77
63051;SHT30;49136;47.416;19.402;2023-02-15T15:44:40;6.32;79.39
63051;SHT30;49136;47.416;19.402;2023-02-15T15:49:59;5.93;81.03
63051;SHT30;49136;47.416;19.402;2023-02-15T15:52:26;5.78;81.79
63051;SHT30;49136;47.416;19.402;2023-02-15T15:55:04;5.60;82.56
63051;SHT30;49136;47.416;19.402;2023-02-15T15:57:41;5.43;83.12
63051;SHT30;49136;47.416;19.402;2023-02-15T16:01:27;5.24;83.74
63051;SHT30;49136;47.416;19.402;2023-02-15T16:03:26;5.04;84.45
63051;SHT30;49136;47.416;19.402;2023-02-15T16:05:52;4.86;84.91
63051;SHT30;49136;47.416;19.402;2023-02-15T16:08:40;4.69;85.69
63051;SHT30;49136;47.416;19.402;2023-02-15T16:11:27;4.53;86.02
63051;SHT30;49136;47.416;19.402;2023-02-15T16:13:55;4.34;86.58
63051;SHT30;49136;47.416;19.402;2023-02-15T16:16:23;4.22;87.62
63051;SHT30;49136;47.416;19.402;2023-02-15T16:18:54;4.01;88.49
63051;SHT30;49136;47.416;19.402;2023-02-15T16:21:30;3.82;88.69
63051;SHT30;49136;47.416;19.402;2023-02-15T16:29:29;3.34;89.61
63051;SHT30;49136;47.416;19.402;2023-02-15T16:32:01;3.23;90.36
63051;SHT30;49136;47.416;19.402;2023-02-15T16:34:27;3.03;90.72
63051;SHT30;49136;47.416;19.402;2023-02-15T16:37:13;2.91;91.22
63051;SHT30;49136;47.416;19.402;2023-02-15T16:39:43;2.82;91.20
63051;SHT30;49136;47.416;19.402;2023-02-15T16:42:11;2.71;91.27
63051;SHT30;49136;47.416;19.402;2023-02-15T16:44:39;2.60;91.86
63051;SHT30;49136;47.416;19.402;2023-02-15T16:50:04;2.43;92.82
63051;SHT30;49136;47.416;19.402;2023-02-15T16:52:30;2.36;91.88
63051;SHT30;49136;47.416;19.402;2023-02-15T16:54:58;2.29;91.98
63051;SHT30;49136;47.416;19.402;2023-02-15T16:57:28;2.09;92.34
63051;SHT30;49136;47.416;19.402;2023-02-15T17:00:04;2.02;92.46
63051;SHT30;49136;47.416;19.402;2023-02-15T17:02:32;1.91;92.75
63051;SHT30;49136;47.416;19.402;2023-02-15T17:07:33;1.66;93.40
63051;SHT30;49136;47.416;19.402;2023-02-15T17:10:31;1.40;93.75
63051;SHT30;49136;47.416;19.402;2023-02-15T17:13:09;1.24;94.07
63051;SHT30;49136;47.416;19.402;2023-02-15T17:15:42;1.07;94.36
63051;SHT30;49136;47.416;19.402;2023-02-15T17:18:20;1.07;95.34
63051;SHT30;49136;47.416;19.402;2023-02-15T17:20:49;1.09;95.14
63051;SHT30;49136;47.416;19.402;2023-02-15T17:23:28;1.08;95.01
63051;SHT30;49136;47.416;19.402;2023-02-15T17:25:56;0.97;95.15
63051;SHT30;49136;47.416;19.402;2023-02-15T17:28:25;0.81;95.53
63051;SHT30;49136;47.416;19.402;2023-02-15T17:30:52;0.72;95.78
63051;SHT30;49136;47.416;19.402;2023-02-15T17:36:19;0.50;95.89
63051;SHT30;49136;47.416;19.402;2023-02-15T17:39:20;0.32;96.15
63051;SHT30;49136;47.416;19.402;2023-02-15T17:41:48;0.21;96.63
63051;SHT30;49136;47.416;19.402;2023-02-15T17:44:18;0.11;96.94
63051;SHT30;49136;47.416;19.402;2023-02-15T17:46:44;0.13;97.44
63051;SHT30;49136;47.416;19.402;2023-02-15T17:49:30;0.08;97.36
63051;SHT30;49136;47.416;19.402;2023-02-15T17:52:01;0.10;97.65
63051;SHT30;49136;47.416;19.402;2023-02-15T17:54:28;-0.10;97.01
63051;SHT30;49136;47.416;19.402;2023-02-15T17:57:13;-0.27;97.27
63051;SHT30;49136;47.416;19.402;2023-02-15T17:59:40;-0.20;98.56
63051;SHT30;49136;47.416;19.402;2023-02-15T18:02:25;-0.21;98.60
63051;SHT30;49136;47.416;19.402;2023-02-15T18:05:14;-0.32;98.57
63051;SHT30;49136;47.416;19.402;2023-02-15T18:07:59;-0.24;98.80
63051;SHT30;49136;47.416;19.402;2023-02-15T18:10:43;-0.24;99.03
63051;SHT30;49136;47.416;19.402;2023-02-15T18:13:27;-0.27;98.86
63051;SHT30;49136;47.416;19.402;2023-02-15T18:15:55;-0.41;99.01
63051;SHT30;49136;47.416;19.402;2023-02-15T18:18:23;-0.55;99.02
63051;SHT30;49136;47.416;19.402;2023-02-15T18:20:49;-0.53;99.47
63051;SHT30;49136;47.416;19.402;2023-02-15T18:23:17;-0.69;99.35
63051;SHT30;49136;47.416;19.402;2023-02-15T18:25:42;-0.77;99.79
63051;SHT30;49136;47.416;19.402;2023-02-15T18:28:08;-0.84;99.99
63051;SHT30;49136;47.416;19.402;2023-02-15T18:30:39;-0.91;99.99
63051;SHT30;49136;47.416;19.402;2023-02-15T18:35:50;-1.04;99.99
63051;SHT30;49136;47.416;19.402;2023-02-15T18:38:16;-1.08;99.99
63051;SHT30;49136;47.416;19.402;2023-02-15T18:40:48;-1.05;99.99
63051;SHT30;49136;47.416;19.402;2023-02-15T18:43:15;-1.14;99.99
63051;SHT30;49136;47.416;19.402;2023-02-15T18:45:41;-1.27;99.99
63051;SHT30;49136;47.416;19.402;2023-02-15T18:48:09;-1.32;99.99